Time;durP1;ratioP1;P1;durP2;ratioP2;P2;SDS_P1;SDS_P2;PMS_P1;PMS_P2;Temp;Humidity;BMP_temperature;BMP_pressure;BME280_temperature;BME280_humidity;BME280_pressure;Samples;Min_cycle;Max_cycle;Signal;HPM_P1;HPM_P2
2022/04/19 00:00:54;;;;;;;8.23;6.22;;;17.80;43.40;;;;;;5072850;28;20028;-74
2022/04/19 00:03:20;;;;;;;9.48;5.70;;;17.70;43.60;;;;;;5072883;28;20038;-74
2022/04/19 00:05:46;;;;;;;7.90;5.38;;;17.70;43.30;;;;;;5072682;28;20017;-74
2022/04/19 00:08:14;;;;;;;7.80;5.50;;;17.70;43.40;;;;;;5072484;28;20093;-74
2022/04/19 00:10:40;;;;;;;8.90;5.47;;;17.70;43.70;;;;;;5072024;28;20036;-74
2022/04/19 00:13:07;;;;;;;7.13;5.05;;;17.60;43.40;;;;;;5072082;28;20437;-74
2022/04/19 00:15:33;;;;;;;7.53;5.40;;;17.60;43.40;;;;;;5072220;28;20028;-74
2022/04/19 00:18:00;;;;;;;8.38;4.82;;;17.50;43.30;;;;;;5071815;28;20021;-74
2022/04/19 00:20:28;;;;;;;11.00;5.65;;;17.50;43.50;;;;;;5069527;28;20166;-74
2022/04/19 00:22:54;;;;;;;7.20;4.70;;;17.40;43.40;;;;;;5071831;28;20081;-74
2022/04/19 00:25:20;;;;;;;8.82;5.47;;;17.40;43.60;;;;;;5072450;28;20099;-74
2022/04/19 00:27:46;;;;;;;6.93;5.20;;;17.40;43.60;;;;;;5071633;28;20499;-74
2022/04/19 00:30:12;;;;;;;7.85;5.50;;;17.20;43.50;;;;;;5071892;28;20119;-74
2022/04/19 00:32:39;;;;;;;9.35;5.05;;;17.10;43.80;;;;;;5072011;28;20105;-74
2022/04/19 00:35:06;;;;;;;8.45;5.20;;;17.00;44.30;;;;;;5071586;28;20483;-74
2022/04/19 00:37:35;;;;;;;7.38;5.50;;;16.90;44.50;;;;;;5071257;28;20037;-74
2022/04/19 00:40:05;;;;;;;7.90;5.40;;;16.90;44.70;;;;;;5070944;28;20372;-76
2022/04/19 00:42:32;;;;;;;8.27;5.05;;;16.80;44.80;;;;;;5071734;28;20046;-76
2022/04/19 00:44:59;;;;;;;6.97;5.15;;;16.70;44.90;;;;;;5071202;28;20545;-75
2022/04/19 00:47:26;;;;;;;6.50;4.95;;;16.70;44.90;;;;;;5072267;28;20047;-75
2022/04/19 00:49:52;;;;;;;7.80;5.60;;;16.70;45.10;;;;;;5071663;28;20028;-75
2022/04/19 00:52:19;;;;;;;10.80;6.03;;;16.70;45.40;;;;;;5071474;28;20540;-75
2022/04/19 00:54:47;;;;;;;7.78;5.93;;;16.70;45.10;;;;;;5071711;28;20060;-75
2022/04/19 00:57:14;;;;;;;8.45;5.53;;;16.70;45.10;;;;;;5072082;28;20024;-75
2022/04/19 00:59:40;;;;;;;7.68;6.18;;;16.50;45.00;;;;;;5071770;28;20024;-75
2022/04/19 01:02:06;;;;;;;7.00;5.18;;;16.50;45.30;;;;;;5071780;28;20031;-75
2022/04/19 01:04:31;;;;;;;7.90;5.00;;;16.60;45.40;;;;;;5071463;28;20099;-74
2022/04/19 01:06:58;;;;;;;6.57;5.40;;;16.50;45.10;;;;;;5071904;28;20082;-75
2022/04/19 01:09:24;;;;;;;7.80;5.53;;;16.60;45.20;;;;;;5072294;28;20055;-75
2022/04/19 01:14:38;;;;;;;7.82;5.38;;;16.60;45.10;;;;;;5071055;28;20051;-75
2022/04/19 01:17:08;;;;;;;6.15;4.90;;;16.70;45.20;;;;;;5068866;28;20032;-75
2022/04/19 01:19:35;;;;;;;8.98;5.43;;;16.70;44.90;;;;;;5071415;28;20017;-75
2022/04/19 01:22:01;;;;;;;6.30;5.18;;;16.60;45.30;;;;;;5071509;28;20071;-75
2022/04/19 01:24:27;;;;;;;9.10;5.80;;;16.70;45.20;;;;;;5071137;28;20491;-75
2022/04/19 01:26:57;;;;;;;6.95;5.03;;;16.70;44.90;;;;;;5072812;28;20115;-75
2022/04/19 01:29:24;;;;;;;8.13;5.43;;;16.80;44.80;;;;;;5071931;28;20028;-76
2022/04/19 01:31:51;;;;;;;7.07;4.85;;;16.80;44.50;;;;;;5072830;28;20405;-75
2022/04/19 01:34:17;;;;;;;9.63;5.35;;;16.80;44.50;;;;;;5071713;28;20387;-75
2022/04/19 01:36:43;;;;;;;7.88;5.10;;;16.80;44.60;;;;;;5071788;28;20039;-75
2022/04/19 01:39:11;;;;;;;8.85;5.47;;;16.80;44.80;;;;;;5071853;28;20028;-75
2022/04/19 01:41:37;;;;;;;7.18;5.65;;;16.80;44.60;;;;;;5071167;28;20514;-75
2022/04/19 01:44:05;;;;;;;9.32;5.07;;;16.80;44.50;;;;;;5071972;28;20039;-75
2022/04/19 01:46:31;;;;;;;7.28;5.22;;;16.80;44.60;;;;;;5072674;28;20032;-75
2022/04/19 01:48:57;;;;;;;7.38;5.55;;;16.80;44.50;;;;;;5076320;28;20036;-74
2022/04/19 01:51:24;;;;;;;7.82;5.85;;;16.80;44.30;;;;;;5076465;28;20028;-74
2022/04/19 01:53:50;;;;;;;7.20;4.90;;;16.70;44.20;;;;;;5075981;28;20035;-74
2022/04/19 01:56:16;;;;;;;6.93;5.07;;;16.70;44.50;;;;;;5074905;28;20507;-75
2022/04/19 01:58:42;;;;;;;8.70;5.35;;;16.70;44.50;;;;;;5074977;28;20023;-75
2022/04/19 02:01:08;;;;;;;9.65;5.72;;;16.70;44.50;;;;;;5074972;28;20020;-74
2022/04/19 02:03:34;;;;;;;7.82;6.22;;;16.60;44.30;;;;;;5074956;28;20021;-74
2022/04/19 02:06:00;;;;;;;8.02;5.40;;;16.50;44.30;;;;;;5074845;28;20105;-75
2022/04/19 02:08:27;;;;;;;6.85;5.55;;;16.40;44.50;;;;;;5074810;28;20021;-75
2022/04/19 02:10:52;;;;;;;8.73;5.45;;;16.40;44.70;;;;;;5074456;28;20078;-76
2022/04/19 02:13:19;;;;;;;7.93;5.63;;;16.40;44.80;;;;;;5074460;28;20028;-76
2022/04/19 02:15:46;;;;;;;9.70;5.95;;;16.40;45.00;;;;;;5074720;28;20036;-76
2022/04/19 02:18:12;;;;;;;8.15;5.88;;;16.40;45.10;;;;;;5074703;28;20124;-75
2022/04/19 02:20:37;;;;;;;9.70;6.35;;;16.40;44.90;;;;;;5074308;28;20511;-76
2022/04/19 02:23:03;;;;;;;8.23;6.07;;;16.30;44.60;;;;;;5074939;28;20056;-75
2022/04/19 02:25:30;;;;;;;10.27;6.13;;;16.30;44.80;;;;;;5074633;28;20468;-76
2022/04/19 02:27:56;;;;;;;6.60;5.35;;;16.30;44.90;;;;;;5074251;28;20542;-76
2022/04/19 02:30:21;;;;;;;8.35;5.90;;;16.20;45.10;;;;;;5074396;28;20111;-76
2022/04/19 02:32:48;;;;;;;6.80;5.25;;;16.30;45.30;;;;;;5074505;28;20034;-75
2022/04/19 02:35:18;;;;;;;7.53;5.70;;;16.30;45.40;;;;;;5073958;28;20032;-75
2022/04/19 02:37:54;;;;;;;8.73;5.88;;;16.40;45.40;;;;;;5073868;28;20431;-75
2022/04/19 02:40:22;;;;;;;7.53;5.70;;;16.50;45.50;;;;;;5074293;28;20028;-75
2022/04/19 02:42:50;;;;;;;7.53;5.78;;;16.40;45.10;;;;;;5074038;28;20029;-75
2022/04/19 02:45:19;;;;;;;8.00;5.35;;;16.50;45.30;;;;;;5074033;28;20032;-75
2022/04/19 02:47:45;;;;;;;10.27;6.00;;;16.50;45.20;;;;;;5073619;28;20047;-75
2022/04/19 02:50:11;;;;;;;8.43;5.97;;;16.50;45.20;;;;;;5073979;28;20040;-75
2022/04/19 02:52:36;;;;;;;10.20;6.15;;;16.50;45.70;;;;;;5074058;28;20391;-75
2022/04/19 02:55:02;;;;;;;9.38;6.20;;;16.50;45.60;;;;;;5073888;28;20058;-75
2022/04/19 02:57:28;;;;;;;9.80;6.05;;;16.50;45.70;;;;;;5073881;28;20028;-75
2022/04/19 02:59:53;;;;;;;7.35;5.72;;;16.50;45.40;;;;;;5073868;28;20036;-75
2022/04/19 03:02:19;;;;;;;8.73;5.88;;;16.40;45.40;;;;;;5073714;28;20027;-75
2022/04/19 03:04:45;;;;;;;10.52;6.28;;;16.40;45.20;;;;;;5073562;28;20032;-75
2022/04/19 03:07:14;;;;;;;8.25;6.28;;;16.40;45.50;;;;;;5073452;28;20476;-75
2022/04/19 03:09:41;;;;;;;8.60;6.82;;;16.30;45.40;;;;;;5073207;28;20053;-75
2022/04/19 03:12:07;;;;;;;8.90;6.45;;;16.30;45.30;;;;;;5073338;28;20243;-75
2022/04/19 03:14:35;;;;;;;9.48;7.00;;;16.30;45.20;;;;;;5073323;28;20119;-75
2022/04/19 03:17:00;;;;;;;9.38;6.50;;;16.20;45.20;;;;;;5073616;28;20029;-75
2022/04/19 03:19:26;;;;;;;7.97;6.13;;;16.20;45.50;;;;;;5072870;28;20832;-75
2022/04/19 03:21:52;;;;;;;9.35;6.78;;;16.30;45.90;;;;;;5073781;28;20043;-75
2022/04/19 03:29:46;;;;;;;9.82;6.85;;;16.30;45.60;;;;;;5073290;28;20082;-75
2022/04/19 03:32:11;;;;;;;7.72;5.95;;;16.30;45.60;;;;;;5073438;28;20032;-75
2022/04/19 03:34:37;;;;;;;8.50;6.10;;;16.20;45.60;;;;;;5072793;28;20492;-74
2022/04/19 03:37:03;;;;;;;8.63;6.10;;;16.30;46.10;;;;;;5073289;28;20029;-75
2022/04/19 03:39:29;;;;;;;8.73;6.63;;;16.30;45.70;;;;;;5073284;28;20020;-75
2022/04/19 03:41:57;;;;;;;11.27;6.82;;;16.30;45.90;;;;;;5073240;28;20111;-75
2022/04/19 03:44:25;;;;;;;11.35;7.57;;;16.30;45.70;;;;;;5072955;28;20033;-75
2022/04/19 03:47:09;;;;;;;9.18;6.18;;;16.30;45.80;;;;;;5072548;28;20077;-74
2022/04/19 03:49:37;;;;;;;9.93;7.18;;;16.20;45.70;;;;;;5065750;28;20464;-74
2022/04/19 03:52:03;;;;;;;9.80;7.15;;;16.20;45.80;;;;;;5070388;28;20131;-74
2022/04/19 03:54:31;;;;;;;8.98;6.57;;;16.20;45.70;;;;;;5072916;28;20047;-74
2022/04/19 03:56:56;;;;;;;10.13;6.65;;;16.20;45.70;;;;;;5073940;28;20028;-74
2022/04/19 03:59:22;;;;;;;7.78;6.13;;;16.20;46.10;;;;;;5073733;28;20086;-75
2022/04/19 04:01:48;;;;;;;8.75;6.30;;;16.20;46.40;;;;;;5073939;28;20044;-75
2022/04/19 04:04:13;;;;;;;9.82;7.22;;;16.20;47.30;;;;;;5073338;28;20029;-75
2022/04/19 04:06:39;;;;;;;12.60;7.30;;;16.10;46.40;;;;;;5073683;28;20426;-75
2022/04/19 04:09:05;;;;;;;10.45;7.05;;;16.10;46.30;;;;;;5073126;28;20111;-75
2022/04/19 04:11:32;;;;;;;8.05;6.20;;;16.00;46.20;;;;;;5072944;28;20510;-75
2022/04/19 04:13:57;;;;;;;8.50;6.35;;;16.00;46.70;;;;;;5073528;28;20081;-75
2022/04/19 04:16:23;;;;;;;12.57;7.88;;;16.00;46.70;;;;;;5073390;28;20033;-75
2022/04/19 04:18:48;;;;;;;9.90;6.90;;;16.00;46.40;;;;;;5072961;28;20782;-75
2022/04/19 04:21:14;;;;;;;8.43;6.07;;;15.80;46.30;;;;;;5073262;28;20097;-75
2022/04/19 04:23:40;;;;;;;7.80;5.97;;;15.80;46.50;;;;;;5072238;28;20375;-74
2022/04/19 04:26:05;;;;;;;12.55;7.70;;;15.80;46.80;;;;;;5072210;28;20074;-75
2022/04/19 04:28:31;;;;;;;11.18;7.43;;;15.70;46.70;;;;;;5071821;28;20515;-75
2022/04/19 04:30:57;;;;;;;7.97;5.65;;;15.70;46.80;;;;;;5071815;28;20490;-75
2022/04/19 04:33:22;;;;;;;9.20;6.63;;;15.60;47.00;;;;;;5072105;28;20464;-74
2022/04/19 04:35:48;;;;;;;9.55;7.15;;;15.60;47.20;;;;;;5069320;28;20066;-74
2022/04/19 04:38:14;;;;;;;8.73;6.13;;;15.50;47.30;;;;;;5072050;28;20054;-74
2022/04/19 04:40:40;;;;;;;10.55;6.38;;;15.50;47.30;;;;;;5071685;28;20028;-74
2022/04/19 04:43:06;;;;;;;11.00;7.30;;;15.50;47.50;;;;;;5071857;28;20017;-75
2022/04/19 04:45:31;;;;;;;11.50;7.20;;;15.40;47.20;;;;;;5072105;28;20021;-74
2022/04/19 04:50:41;;;;;;;9.20;6.72;;;15.40;48.00;;;;;;5071487;28;20103;-76
2022/04/19 04:53:07;;;;;;;9.88;7.53;;;15.40;47.60;;;;;;5072301;28;20111;-76
2022/04/19 04:55:33;;;;;;;12.85;7.03;;;15.40;47.50;;;;;;5072213;28;20035;-76
2022/04/19 04:58:01;;;;;;;9.50;6.70;;;15.40;47.50;;;;;;5071564;28;20031;-76
2022/04/19 05:00:27;;;;;;;9.85;6.40;;;15.50;47.70;;;;;;5072164;28;20028;-76
2022/04/19 05:02:53;;;;;;;10.80;7.03;;;15.50;48.10;;;;;;5071162;28;20032;-76
2022/04/19 05:05:19;;;;;;;8.95;6.85;;;15.50;47.40;;;;;;5071638;28;20484;-77
2022/04/19 05:07:45;;;;;;;10.32;7.05;;;15.40;47.50;;;;;;5070823;28;20052;-75
2022/04/19 05:10:11;;;;;;;9.90;6.75;;;15.40;47.50;;;;;;5071512;28;20124;-76
2022/04/19 05:12:37;;;;;;;13.98;7.78;;;15.40;47.80;;;;;;5070569;28;20115;-75
2022/04/19 05:15:03;;;;;;;10.40;7.47;;;15.30;47.80;;;;;;5071055;28;20028;-76
2022/04/19 05:17:29;;;;;;;10.82;6.32;;;15.30;47.80;;;;;;5071721;28;20020;-76
2022/04/19 05:19:55;;;;;;;10.43;7.45;;;15.20;48.00;;;;;;5071208;28;20361;-76
2022/04/19 05:22:21;;;;;;;11.40;8.02;;;15.20;48.10;;;;;;5074456;28;20479;-76
2022/04/19 05:24:47;;;;;;;10.65;7.18;;;15.30;48.00;;;;;;5075906;28;20055;-76
2022/04/19 05:27:13;;;;;;;10.43;7.63;;;15.20;48.50;;;;;;5076089;28;20025;-76
2022/04/19 05:29:38;;;;;;;11.23;6.90;;;15.30;48.40;;;;;;5076561;28;20020;-76
2022/04/19 05:32:05;;;;;;;9.88;6.82;;;15.30;48.50;;;;;;5076792;28;20020;-76
2022/04/19 05:34:31;;;;;;;10.00;6.70;;;15.30;48.70;;;;;;5076330;28;20043;-76
2022/04/19 05:36:56;;;;;;;10.98;6.97;;;15.40;48.50;;;;;;5076599;28;20028;-75
2022/04/19 05:39:22;;;;;;;13.20;7.53;;;15.40;48.80;;;;;;5076221;28;20471;-76
2022/04/19 05:41:48;;;;;;;12.10;7.82;;;15.50;48.60;;;;;;5076460;28;20040;-76
2022/04/19 05:44:14;;;;;;;12.55;6.70;;;15.60;48.40;;;;;;5076662;28;20379;-76
2022/04/19 05:46:39;;;;;;;10.32;6.95;;;15.50;48.40;;;;;;5076272;28;20498;-76
2022/04/19 05:49:05;;;;;;;9.65;6.65;;;15.60;48.20;;;;;;5076068;28;20020;-76
2022/04/19 05:51:32;;;;;;;11.27;7.63;;;15.70;48.30;;;;;;5076318;28;20028;-76
2022/04/19 05:53:57;;;;;;;10.65;7.20;;;15.80;48.10;;;;;;5076205;28;20040;-76
2022/04/19 05:56:23;;;;;;;10.77;6.72;;;15.80;47.90;;;;;;5076356;28;20446;-76
2022/04/19 05:58:48;;;;;;;13.15;6.93;;;15.90;47.90;;;;;;5076294;28;20048;-76
2022/04/19 06:01:14;;;;;;;11.05;8.10;;;16.00;48.10;;;;;;5075991;28;20025;-76
2022/04/19 06:06:24;;;;;;;12.27;7.13;;;16.10;47.70;;;;;;5076075;28;20470;-76
2022/04/19 06:08:50;;;;;;;10.57;6.97;;;16.00;48.00;;;;;;5075620;28;20052;-76
2022/04/19 06:11:16;;;;;;;11.10;7.93;;;16.00;48.20;;;;;;5075638;28;20047;-75
2022/04/19 06:13:41;;;;;;;11.65;7.70;;;16.10;48.30;;;;;;5076223;28;20111;-77
2022/04/19 06:16:07;;;;;;;12.57;7.40;;;16.20;48.40;;;;;;5075615;28;20120;-83
2022/04/19 06:18:34;;;;;;;9.60;6.82;;;16.30;48.20;;;;;;5076189;28;20116;-80
2022/04/19 06:20:59;;;;;;;12.57;7.63;;;16.30;48.30;;;;;;5075758;28;20078;-80
2022/04/19 06:23:26;;;;;;;10.50;6.90;;;16.30;48.10;;;;;;5074778;28;20391;-80
2022/04/19 06:25:51;;;;;;;9.75;6.70;;;16.40;48.10;;;;;;5075415;28;20029;-80
2022/04/19 06:28:17;;;;;;;9.20;6.13;;;16.50;48.20;;;;;;5075660;28;20031;-80
2022/04/19 06:30:43;;;;;;;10.57;6.95;;;16.50;48.30;;;;;;5075774;28;20103;-81
2022/04/19 06:33:09;;;;;;;13.00;8.00;;;16.60;47.50;;;;;;5074960;28;20029;-80
2022/04/19 06:35:35;;;;;;;15.10;7.65;;;16.60;48.30;;;;;;5075475;28;20037;-80
2022/04/19 06:38:00;;;;;;;13.02;7.75;;;16.50;48.10;;;;;;5075222;28;20017;-79
2022/04/19 06:40:26;;;;;;;12.50;7.03;;;16.50;47.80;;;;;;5075622;28;20081;-79
2022/04/19 06:42:51;;;;;;;11.38;6.80;;;16.60;47.60;;;;;;5075687;28;20028;-79
2022/04/19 06:45:18;;;;;;;10.07;6.88;;;16.70;47.90;;;;;;5075418;28;20078;-79
2022/04/19 06:47:44;;;;;;;13.63;7.68;;;16.70;48.20;;;;;;5075682;28;20078;-79
2022/04/19 06:50:10;;;;;;;11.77;7.28;;;16.80;47.10;;;;;;5075381;28;20036;-78
2022/04/19 06:52:36;;;;;;;12.13;7.45;;;16.80;46.70;;;;;;5075204;28;20095;-77
2022/04/19 06:55:02;;;;;;;11.40;7.63;;;16.80;46.60;;;;;;5075396;28;20111;-77
2022/04/19 06:57:28;;;;;;;11.13;7.10;;;16.80;47.10;;;;;;5075592;28;20025;-78
2022/04/19 06:59:54;;;;;;;12.77;7.57;;;16.90;46.90;;;;;;5075096;28;20027;-78
2022/04/19 07:02:20;;;;;;;11.82;7.72;;;16.90;47.00;;;;;;5074787;28;20108;-78
2022/04/19 07:04:45;;;;;;;15.48;8.23;;;17.00;47.00;;;;;;5074872;28;20024;-79
2022/04/19 07:07:11;;;;;;;12.63;7.25;;;17.00;47.40;;;;;;5074611;28;20412;-79
2022/04/19 07:09:37;;;;;;;9.40;6.30;;;17.00;47.40;;;;;;5074695;28;20040;-80
2022/04/19 07:12:03;;;;;;;11.93;7.25;;;17.00;46.90;;;;;;5075077;28;20059;-76
2022/04/19 07:14:29;;;;;;;11.80;7.18;;;17.10;47.30;;;;;;5074548;28;20032;-76
2022/04/19 07:16:55;;;;;;;11.07;6.85;;;17.10;47.20;;;;;;5074966;28;20040;-76
2022/04/19 07:19:21;;;;;;;12.07;7.47;;;17.20;46.10;;;;;;5074653;28;20024;-76
2022/04/19 07:27:14;;;;;;;14.95;8.13;;;17.30;45.20;;;;;;5074934;28;20387;-76
2022/04/19 07:29:40;;;;;;;11.25;6.95;;;17.40;46.00;;;;;;5074433;28;20025;-76
2022/04/19 07:32:06;;;;;;;8.98;6.47;;;17.40;45.90;;;;;;5074232;28;20025;-75
2022/04/19 07:34:33;;;;;;;18.08;6.65;;;17.40;45.20;;;;;;5074540;28;20020;-76
2022/04/19 07:36:59;;;;;;;11.88;6.80;;;17.40;45.90;;;;;;5074587;28;20391;-77
2022/04/19 07:39:24;;;;;;;9.30;6.57;;;17.50;46.20;;;;;;5074572;28;20024;-77
2022/04/19 07:41:50;;;;;;;8.45;4.93;;;17.60;45.90;;;;;;5074099;28;20033;-76
2022/04/19 07:44:16;;;;;;;11.02;6.22;;;17.70;45.10;;;;;;5073602;28;20525;-76
2022/04/19 07:46:44;;;;;;;10.02;6.32;;;17.80;44.60;;;;;;5073886;28;20112;-77
2022/04/19 07:49:10;;;;;;;10.38;6.00;;;17.70;45.60;;;;;;5074388;28;20025;-77
2022/04/19 07:51:36;;;;;;;11.25;6.80;;;17.80;45.40;;;;;;5074283;28;20031;-77
2022/04/19 07:54:02;;;;;;;9.82;5.90;;;17.80;45.70;;;;;;5074061;28;20375;-78
2022/04/19 07:56:28;;;;;;;7.13;5.25;;;17.90;45.20;;;;;;5073772;28;20513;-77
2022/04/19 07:58:53;;;;;;;11.48;5.03;;;17.90;44.20;;;;;;5074063;28;20029;-77
2022/04/19 08:01:19;;;;;;;8.35;5.10;;;18.00;44.20;;;;;;5073701;28;20382;-77
2022/04/19 08:03:45;;;;;;;10.60;4.72;;;18.20;43.60;;;;;;5074138;28;20027;-78
2022/04/19 08:06:11;;;;;;;6.68;4.78;;;18.20;44.00;;;;;;5073694;28;20024;-79
2022/04/19 08:08:37;;;;;;;8.35;4.97;;;18.20;43.80;;;;;;5073799;28;20368;-79
2022/04/19 08:11:04;;;;;;;7.72;4.55;;;18.30;44.00;;;;;;5073460;28;20050;-76
2022/04/19 08:13:30;;;;;;;9.95;4.63;;;18.20;43.20;;;;;;5073171;28;20436;-77
2022/04/19 08:15:55;;;;;;;6.95;4.32;;;18.20;43.50;;;;;;5073493;28;20036;-77
2022/04/19 08:18:21;;;;;;;9.35;5.30;;;18.20;44.10;;;;;;5073457;28;20032;-78
2022/04/19 08:20:47;;;;;;;9.57;5.40;;;18.30;44.20;;;;;;5073414;28;20028;-78
2022/04/19 08:23:14;;;;;;;6.13;4.25;;;18.30;44.00;;;;;;5073576;28;20397;-78
2022/04/19 08:25:42;;;;;;;13.35;5.10;;;18.30;43.80;;;;;;5073295;28;20472;-77
2022/04/19 08:28:08;;;;;;;8.18;4.03;;;18.40;43.70;;;;;;5073610;28;20035;-76
2022/04/19 08:30:34;;;;;;;8.18;4.38;;;18.40;43.30;;;;;;5073312;28;20028;-76
2022/04/19 08:33:00;;;;;;;8.68;4.88;;;18.40;43.80;;;;;;5073135;28;20024;-77
2022/04/19 08:35:25;;;;;;;8.13;4.20;;;18.40;43.90;;;;;;5073144;28;20040;-76
2022/04/19 08:37:52;;;;;;;8.68;4.57;;;18.40;43.50;;;;;;5073402;28;20027;-77
2022/04/19 08:40:18;;;;;;;11.88;5.30;;;18.60;43.80;;;;;;5073333;28;20476;-77
2022/04/19 08:42:45;;;;;;;9.05;4.43;;;18.60;44.50;;;;;;5073160;28;20388;-78
2022/04/19 08:45:14;;;;;;;8.98;4.50;;;18.70;44.20;;;;;;5073103;28;20020;-78
2022/04/19 08:47:43;;;;;;;9.20;4.60;;;18.90;43.80;;;;;;5073526;28;20051;-76
2022/04/19 08:50:14;;;;;;;8.60;5.13;;;18.90;43.40;;;;;;5073264;28;20025;-76
2022/04/19 08:52:40;;;;;;;6.22;4.13;;;18.80;43.20;;;;;;5073242;28;20021;-77
2022/04/19 08:57:52;;;;;;;8.98;4.95;;;19.00;44.60;;;;;;5073453;28;20035;-76
2022/04/19 09:00:22;;;;;;;28.83;7.05;;;19.00;44.90;;;;;;5073104;28;20029;-76
2022/04/19 09:02:49;;;;;;;17.75;5.15;;;19.10;44.40;;;;;;5073049;28;20039;-77
2022/04/19 09:05:19;;;;;;;10.20;5.28;;;19.20;43.50;;;;;;5073347;28;20029;-77
2022/04/19 09:07:47;;;;;;;8.32;4.65;;;19.30;43.80;;;;;;5073126;28;20035;-77
2022/04/19 09:10:14;;;;;;;8.85;4.18;;;19.30;44.30;;;;;;5072916;28;20091;-77
2022/04/19 09:13:04;;;;;;;9.93;4.57;;;19.30;43.90;;;;;;5073228;28;20050;-77
2022/04/19 09:15:43;;;;;;;8.27;4.80;;;19.40;44.10;;;;;;5073032;28;20392;-77
2022/04/19 09:18:29;;;;;;;10.10;4.78;;;19.40;44.50;;;;;;5072861;28;20498;-78
2022/04/19 09:20:56;;;;;;;8.13;4.72;;;19.50;44.20;;;;;;5073268;28;20029;-78
2022/04/19 09:23:23;;;;;;;7.90;4.35;;;19.60;44.30;;;;;;5072978;28;20021;-77
2022/04/19 09:25:53;;;;;;;8.68;4.75;;;19.70;43.50;;;;;;5073087;28;20029;-77
2022/04/19 09:28:21;;;;;;;7.85;4.20;;;19.70;42.70;;;;;;5072674;28;20463;-80
2022/04/19 09:30:49;;;;;;;9.15;3.70;;;19.70;43.20;;;;;;5072965;28;20052;-78
2022/04/19 09:33:16;;;;;;;6.25;3.60;;;19.70;42.30;;;;;;5072832;28;20483;-79
2022/04/19 09:35:50;;;;;;;8.88;4.10;;;19.80;42.90;;;;;;5072942;28;20174;-78
2022/04/19 09:38:17;;;;;;;6.82;3.55;;;19.80;41.90;;;;;;5072756;28;20103;-78
2022/04/19 09:40:48;;;;;;;6.90;3.60;;;19.90;43.10;;;;;;5072871;28;20028;-78
2022/04/19 09:43:18;;;;;;;8.25;3.78;;;20.00;43.20;;;;;;5072996;28;20048;-78
2022/04/19 09:45:58;;;;;;;7.70;3.72;;;19.90;44.40;;;;;;5072744;28;20043;-79
2022/04/19 09:48:29;;;;;;;5.95;3.83;;;20.00;43.80;;;;;;5073061;28;20021;-79
2022/04/19 09:50:59;;;;;;;8.18;3.15;;;20.10;43.30;;;;;;5072785;28;20379;-76
2022/04/19 09:53:29;;;;;;;4.95;3.17;;;20.10;43.50;;;;;;5072798;28;20017;-77
2022/04/19 09:55:57;;;;;;;6.88;3.10;;;20.00;43.60;;;;;;5072483;28;20033;-77
2022/04/19 09:58:24;;;;;;;6.03;3.38;;;20.10;44.50;;;;;;5072415;28;20341;-78
2022/04/19 10:00:50;;;;;;;6.00;3.33;;;20.20;44.10;;;;;;5072561;28;20031;-76
2022/04/19 10:08:52;;;;;;;8.00;4.43;;;20.50;43.30;;;;;;5074175;28;20027;-76
2022/04/19 10:11:18;;;;;;;7.28;4.60;;;20.50;43.40;;;;;;5075422;28;20055;-76
2022/04/19 10:13:45;;;;;;;10.43;4.47;;;20.50;42.80;;;;;;5075247;28;20514;-76
2022/04/19 10:16:14;;;;;;;8.90;4.93;;;20.60;42.20;;;;;;5075552;28;20044;-76
2022/04/19 10:18:41;;;;;;;9.23;5.05;;;20.60;41.10;;;;;;5075617;28;20025;-76
2022/04/19 10:21:09;;;;;;;5.82;4.07;;;20.70;41.80;;;;;;5075331;28;20468;-76
2022/04/19 10:23:40;;;;;;;8.40;4.55;;;20.80;41.60;;;;;;5075954;28;20029;-76
2022/04/19 10:26:19;;;;;;;8.60;5.22;;;20.80;41.80;;;;;;5075435;28;20029;-76
2022/04/19 10:28:50;;;;;;;8.05;4.82;;;20.80;41.90;;;;;;5075564;28;20028;-76
2022/04/19 10:31:25;;;;;;;8.50;5.15;;;20.80;41.60;;;;;;5075776;28;20032;-76
2022/04/19 10:33:52;;;;;;;8.93;4.70;;;20.80;41.70;;;;;;5075588;28;20480;-76
2022/04/19 10:36:37;;;;;;;6.75;4.43;;;20.90;42.00;;;;;;5075812;28;20037;-76
2022/04/19 10:39:12;;;;;;;7.38;4.30;;;21.00;42.80;;;;;;5075367;28;20031;-76
2022/04/19 10:42:05;;;;;;;6.93;4.53;;;21.00;40.90;;;;;;5075490;28;20016;-76
2022/04/19 10:44:43;;;;;;;9.73;5.63;;;21.10;41.70;;;;;;5075439;28;20028;-76
2022/04/19 10:47:16;;;;;;;6.93;4.07;;;21.20;41.30;;;;;;5075419;28;20029;-76
2022/04/19 10:50:05;;;;;;;10.27;4.15;;;21.30;40.90;;;;;;5075009;28;20032;-76
2022/04/19 10:52:36;;;;;;;5.85;3.33;;;21.30;41.70;;;;;;5074950;28;20029;-76
2022/04/19 10:55:22;;;;;;;9.82;4.57;;;21.40;41.80;;;;;;5075153;28;20063;-76
2022/04/19 10:58:08;;;;;;;9.98;5.15;;;21.60;41.40;;;;;;5074607;28;20043;-76
2022/04/19 11:00:34;;;;;;;7.05;4.00;;;21.70;42.20;;;;;;5075426;28;20412;-76
2022/04/19 11:03:02;;;;;;;7.68;4.70;;;21.80;41.50;;;;;;5075654;28;20013;-76
2022/04/19 11:05:45;;;;;;;10.00;5.10;;;22.00;42.70;;;;;;5075506;28;20510;-76
2022/04/19 11:08:26;;;;;;;8.63;4.53;;;22.20;41.30;;;;;;5075434;28;20017;-76
2022/04/19 11:10:58;;;;;;;7.95;4.85;;;22.30;41.70;;;;;;5075219;28;20411;-76
2022/04/19 11:13:31;;;;;;;10.07;5.40;;;22.30;40.20;;;;;;5076502;28;20020;-74
2022/04/19 11:16:04;;;;;;;9.82;4.70;;;22.30;40.90;;;;;;5087568;28;20033;-76
2022/04/19 11:18:32;;;;;;;11.18;5.20;;;22.50;39.80;;;;;;5083592;28;20016;-76
2022/04/19 11:20:59;;;;;;;9.13;4.88;;;22.60;40.00;;;;;;5076655;28;20043;-76
2022/04/19 11:23:27;;;;;;;9.98;4.68;;;22.60;40.40;;;;;;5075085;28;20025;-76
2022/04/19 11:25:54;;;;;;;6.38;4.70;;;22.60;40.20;;;;;;5075218;28;20024;-76
2022/04/19 11:28:19;;;;;;;9.77;4.85;;;22.60;39.50;;;;;;5075326;28;20070;-76
2022/04/19 11:31:05;;;;;;;8.73;5.07;;;22.60;39.30;;;;;;5075283;28;20032;-76
2022/04/19 11:33:33;;;;;;;7.30;4.60;;;22.40;38.70;;;;;;5074788;28;20027;-76
2022/04/19 11:36:02;;;;;;;10.25;4.90;;;22.30;40.00;;;;;;5074977;28;20032;-76
2022/04/19 11:38:29;;;;;;;7.78;4.75;;;22.40;40.20;;;;;;5074700;28;20020;-76
2022/04/19 11:47:00;;;;;;;9.32;4.53;;;22.30;41.50;;;;;;5074547;28;20388;-76
2022/04/19 11:49:19;;;;;;;8.43;5.28;;;22.30;42.20;;;;;;5072396;28;20621;-76
2022/04/19 11:51:46;;;;;;;10.35;5.13;;;22.40;41.00;;;;;;5074405;28;20032;-76
2022/04/19 11:54:19;;;;;;;9.52;4.57;;;22.50;40.90;;;;;;5074330;28;20027;-76
2022/04/19 11:56:45;;;;;;;7.20;4.10;;;22.60;40.10;;;;;;5074358;28;20035;-76
2022/04/19 11:59:11;;;;;;;5.35;3.72;;;22.60;40.20;;;;;;5074474;28;20028;-73
2022/04/19 12:01:36;;;;;;;5.82;3.97;;;22.60;39.80;;;;;;5074508;28;20145;-74
2022/04/19 12:04:21;;;;;;;10.95;4.95;;;22.70;42.00;;;;;;5074215;28;20040;-74
2022/04/19 12:06:58;;;;;;;8.63;4.40;;;22.80;41.60;;;;;;5074360;28;20020;-74
2022/04/19 12:09:24;;;;;;;6.53;3.25;;;22.80;43.00;;;;;;5075020;28;20041;-72
2022/04/19 12:11:50;;;;;;;4.93;3.33;;;22.90;41.20;;;;;;5078766;28;20031;-74
2022/04/19 12:14:30;;;;;;;14.43;4.22;;;23.00;40.80;;;;;;5074355;28;20051;-75
2022/04/19 12:17:00;;;;;;;9.65;3.85;;;23.00;40.20;;;;;;5073932;28;20115;-74
2022/04/19 12:19:42;;;;;;;5.03;3.35;;;23.10;39.30;;;;;;5072571;28;20177;-74
2022/04/19 12:22:23;;;;;;;4.78;3.00;;;23.10;39.60;;;;;;5073982;28;20365;-75
2022/04/19 12:24:53;;;;;;;6.95;3.30;;;22.80;40.50;;;;;;5073855;28;20024;-75
2022/04/19 12:27:30;;;;;;;5.65;3.20;;;22.60;40.80;;;;;;5073468;28;20480;-75
2022/04/19 12:30:11;;;;;;;7.82;3.83;;;22.60;41.50;;;;;;5073880;28;20035;-75
2022/04/19 12:32:54;;;;;;;4.07;2.83;;;22.60;40.80;;;;;;5073652;28;20039;-75
2022/04/19 12:35:37;;;;;;;5.20;3.47;;;22.60;42.20;;;;;;5073740;28;20029;-75
2022/04/19 12:38:13;;;;;;;7.95;3.40;;;22.60;41.90;;;;;;5073979;28;20024;-74
2022/04/19 12:40:40;;;;;;;5.80;3.13;;;22.60;41.80;;;;;;5073485;28;20418;-75
2022/04/19 12:43:06;;;;;;;6.13;2.80;;;22.70;42.00;;;;;;5073360;28;20026;-75
2022/04/19 12:45:35;;;;;;;4.35;2.70;;;23.10;44.10;;;;;;5073713;28;20056;-75
2022/04/19 12:48:01;;;;;;;5.10;2.78;;;23.10;42.50;;;;;;5073492;28;20020;-75
2022/04/19 12:50:27;;;;;;;3.53;2.50;;;23.20;42.40;;;;;;5073323;28;20597;-75
2022/04/19 12:52:53;;;;;;;4.30;2.95;;;23.30;41.60;;;;;;5073107;28;20078;-75
2022/04/19 12:55:31;;;;;;;5.97;2.75;;;23.30;40.10;;;;;;5073131;28;20068;-75
2022/04/19 12:58:10;;;;;;;4.53;2.33;;;23.30;41.10;;;;;;5073488;28;20423;-75
2022/04/19 13:00:36;;;;;;;3.90;2.33;;;23.30;40.00;;;;;;5073549;28;20109;-75
2022/04/19 13:03:03;;;;;;;4.53;2.88;;;23.50;41.10;;;;;;5073336;28;20100;-75
2022/04/19 13:13:41;;;;;;;5.38;2.38;;;23.30;39.60;;;;;;5073195;28;20392;-74
2022/04/19 13:16:06;;;;;;;3.42;2.17;;;23.30;39.80;;;;;;5073388;28;20037;-75
2022/04/19 13:18:32;;;;;;;5.05;2.00;;;23.40;40.80;;;;;;5073217;28;20108;-75
2022/04/19 13:20:58;;;;;;;3.88;2.33;;;23.40;40.30;;;;;;5073143;28;20032;-75
2022/04/19 13:23:24;;;;;;;3.15;2.63;;;23.50;40.60;;;;;;5073522;28;20021;-75
2022/04/19 13:25:49;;;;;;;5.20;2.17;;;23.40;41.20;;;;;;5073060;28;20383;-75
2022/04/19 13:28:15;;;;;;;5.53;1.70;;;23.30;41.30;;;;;;5072759;28;20075;-75